Time;durP1;ratioP1;P1;durP2;ratioP2;P2;SDS_P1;SDS_P2;PMS_P1;PMS_P2;Temp;Humidity;BMP_temperature;BMP_pressure;BME280_temperature;BME280_humidity;BME280_pressure;Samples;Min_cycle;Max_cycle;Signal;HPM_P1;HPM_P2
2023/01/23 00:00:41;;;;;;;17.40;8.23;;;1.60;99.90;1.40;102178.00;;;;4782057;29;88007;-70
2023/01/23 00:03:07;;;;;;;20.67;9.47;;;1.70;99.90;1.40;102172.00;;;;4781762;29;96787;-70
2023/01/23 00:05:33;;;;;;;13.60;8.07;;;1.70;99.90;1.40;102169.00;;;;4784588;29;87138;-69
2023/01/23 00:07:59;;;;;;;19.10;9.30;;;1.50;99.90;1.40;102185.00;;;;4780598;29;117605;-70
2023/01/23 00:10:24;;;;;;;18.23;9.67;;;1.70;99.90;1.50;102173.00;;;;4780238;29;118502;-71
2023/01/23 00:12:52;;;;;;;14.80;9.80;;;2.80;99.90;1.50;102175.00;;;;4791011;29;109966;-72
2023/01/23 00:15:17;;;;;;;11.40;8.60;;;1.70;99.90;1.50;102169.00;;;;4781460;29;88034;-69
2023/01/23 00:17:44;;;;;;;12.47;8.57;;;1.60;99.90;1.50;102176.00;;;;4782969;29;88166;-69
2023/01/23 00:20:11;;;;;;;18.00;8.17;;;1.70;99.90;1.50;102172.00;;;;4780982;29;118551;-71
2023/01/23 00:22:37;;;;;;;21.73;10.00;;;1.80;99.90;1.50;102167.00;;;;4782407;29;103685;-71
2023/01/23 00:25:05;;;;;;;10.00;9.00;;;1.70;99.90;1.50;102174.00;;;;4782320;29;99206;-71
2023/01/23 00:27:30;;;;;;;11.67;7.93;;;1.70;99.90;1.50;102169.00;;;;4782684;29;106947;-71
2023/01/23 00:29:56;;;;;;;16.13;8.37;;;1.90;99.90;1.50;102173.00;;;;4784953;29;111778;-70
2023/01/23 00:32:22;;;;;;;15.40;8.53;;;1.80;99.90;1.50;102171.00;;;;4781244;29;109575;-70
2023/01/23 00:34:48;;;;;;;16.70;9.03;;;1.90;99.90;1.50;102162.00;;;;4779316;29;108858;-71
2023/01/23 00:37:15;;;;;;;13.37;9.33;;;1.80;99.90;1.50;102174.00;;;;4794225;29;119689;-70
2023/01/23 00:39:41;;;;;;;13.97;8.97;;;1.90;99.90;1.50;102165.00;;;;4778585;29;89092;-70
2023/01/23 00:42:08;;;;;;;15.30;8.40;;;1.80;99.90;1.50;102171.00;;;;4782142;29;87944;-70
2023/01/23 00:44:33;;;;;;;13.70;9.27;;;1.80;99.90;1.50;102173.00;;;;4781733;29;101744;-71
2023/01/23 00:46:59;;;;;;;14.17;9.70;;;1.80;99.90;1.50;102183.00;;;;4781746;29;87847;-70
2023/01/23 00:49:25;;;;;;;16.23;9.90;;;1.80;99.90;1.50;102185.00;;;;4775941;29;117658;-70
2023/01/23 00:51:51;;;;;;;19.23;9.10;;;1.80;99.90;1.50;102191.00;;;;4778706;29;87770;-71
2023/01/23 00:54:20;;;;;;;17.63;9.73;;;1.80;99.90;1.50;102193.00;;;;4793800;29;87140;-71
2023/01/23 00:56:46;;;;;;;16.17;9.47;;;1.80;99.90;1.50;102192.00;;;;4793815;29;87813;-71
2023/01/23 00:59:12;;;;;;;12.17;9.07;;;1.90;99.90;1.50;102202.00;;;;4778468;29;95791;-71
2023/01/23 01:01:38;;;;;;;15.00;10.97;;;1.80;99.90;1.50;102199.00;;;;4781503;29;88999;-70
2023/01/23 01:04:03;;;;;;;18.70;9.20;;;1.80;99.90;1.50;102199.00;;;;4779295;29;100397;-70
2023/01/23 01:06:29;;;;;;;17.07;8.83;;;1.80;99.90;1.50;102202.00;;;;4779089;29;102767;-70
2023/01/23 01:08:56;;;;;;;17.20;9.03;;;1.80;99.90;1.50;102199.00;;;;4782616;29;88949;-70
2023/01/23 01:11:23;;;;;;;17.53;9.77;;;2.20;99.90;1.50;102201.00;;;;4783844;29;88909;-70
2023/01/23 01:13:49;;;;;;;16.50;10.60;;;1.80;99.90;1.50;102203.00;;;;4782581;29;87955;-70
2023/01/23 01:16:15;;;;;;;27.07;12.27;;;1.80;99.90;1.50;102202.00;;;;4781984;29;88120;-70
2023/01/23 01:18:41;;;;;;;18.57;10.83;;;1.70;99.90;1.50;102198.00;;;;4781952;29;117546;-70
2023/01/23 01:21:16;;;;;;;17.53;10.23;;;1.70;99.90;1.40;102208.00;;;;4779404;29;112229;-71
2023/01/23 01:23:41;;;;;;;14.20;9.90;;;1.80;99.90;1.50;102212.00;;;;4794686;29;87797;-70
2023/01/23 01:26:08;;;;;;;16.07;11.20;;;1.70;99.90;1.50;102218.00;;;;4779586;29;100092;-70
2023/01/23 01:28:38;;;;;;;16.93;9.17;;;1.80;99.90;1.50;102215.00;;;;4779229;29;89787;-70
2023/01/23 01:31:13;;;;;;;15.73;10.27;;;1.70;99.90;1.50;102224.00;;;;4780090;29;88212;-70
2023/01/23 01:33:41;;;;;;;13.67;10.07;;;1.80;99.90;1.50;102226.00;;;;4779109;29;101618;-70
2023/01/23 01:36:16;;;;;;;18.40;11.03;;;1.80;99.90;1.50;102241.00;;;;4778401;29;110298;-70
2023/01/23 01:38:42;;;;;;;16.27;11.17;;;1.70;99.90;1.50;102238.00;;;;4778872;29;108452;-71
2023/01/23 01:41:09;;;;;;;13.43;10.77;;;1.80;99.90;1.50;102234.00;;;;4776659;29;87726;-70
2023/01/23 01:43:35;;;;;;;21.37;11.17;;;1.80;99.90;1.50;102233.00;;;;4781900;29;87309;-70
2023/01/23 01:46:20;;;;;;;20.77;11.03;;;1.80;99.90;1.40;102234.00;;;;4777381;29;109685;-72
2023/01/23 01:49:15;;;;;;;17.87;10.37;;;1.70;99.90;1.40;102240.00;;;;4792449;29;87899;-70
2023/01/23 01:51:46;;;;;;;17.23;12.03;;;1.80;99.90;1.40;102237.00;;;;4781860;29;88793;-70
2023/01/23 01:54:29;;;;;;;22.80;10.93;;;1.80;99.90;1.40;102242.00;;;;4779573;29;87849;-72
2023/01/23 01:57:10;;;;;;;21.07;12.50;;;1.80;99.90;1.40;102251.00;;;;4792721;29;88301;-71
2023/01/23 02:00:01;;;;;;;17.40;11.80;;;1.80;99.90;1.40;102249.00;;;;4778871;29;112124;-71
2023/01/23 02:02:42;;;;;;;17.33;10.17;;;2.70;99.90;1.40;102247.00;;;;4781573;29;87874;-71
2023/01/23 02:05:16;;;;;;;25.53;12.10;;;1.80;99.90;1.50;102239.00;;;;4775093;29;87815;-71
2023/01/23 02:08:07;;;;;;;25.60;12.50;;;1.70;99.90;1.40;102245.00;;;;4775683;29;88292;-70
2023/01/23 02:10:35;;;;;;;16.60;11.20;;;1.70;99.90;1.50;102253.00;;;;4781035;29;113113;-71
2023/01/23 02:13:32;;;;;;;19.07;12.47;;;1.80;99.90;1.50;102258.00;;;;4795403;29;87966;-71
2023/01/23 02:16:02;;;;;;;16.03;11.80;;;1.90;99.90;1.50;102251.00;;;;4780970;29;88004;-70
2023/01/23 02:18:29;;;;;;;20.50;12.83;;;1.90;99.90;1.50;102256.00;;;;4778458;29;89939;-71
2023/01/23 02:20:59;;;;;;;20.03;11.17;;;1.80;99.90;1.50;102250.00;;;;4782234;29;110449;-71
2023/01/23 02:23:41;;;;;;;14.17;11.83;;;1.80;99.90;1.50;102257.00;;;;4778896;29;88031;-71
2023/01/23 02:26:13;;;;;;;25.87;13.67;;;1.80;99.90;1.50;102253.00;;;;4780339;29;88159;-71
2023/01/23 02:28:45;;;;;;;24.67;12.53;;;1.70;99.90;1.50;102247.00;;;;4781244;29;88294;-71
2023/01/23 02:31:12;;;;;;;17.80;11.77;;;1.90;99.90;1.50;102254.00;;;;4782958;29;88976;-71
2023/01/23 02:33:38;;;;;;;15.83;11.53;;;1.70;99.90;1.50;102256.00;;;;4781280;29;93282;-71
2023/01/23 02:36:07;;;;;;;16.30;11.40;;;1.80;99.90;1.50;102259.00;;;;4783094;29;110545;-71
2023/01/23 02:38:41;;;;;;;19.90;11.17;;;1.80;99.90;1.50;102251.00;;;;4779488;29;88780;-71
2023/01/23 02:41:09;;;;;;;25.27;13.33;;;2.20;99.90;1.50;102265.00;;;;4795499;29;103524;-72
2023/01/23 02:43:37;;;;;;;21.63;12.57;;;1.80;99.90;1.50;102258.00;;;;4794492;29;89530;-71
2023/01/23 02:46:10;;;;;;;17.30;11.43;;;1.90;99.90;1.50;102265.00;;;;4781056;29;87797;-74
2023/01/23 02:48:38;;;;;;;18.47;12.00;;;1.90;99.90;1.50;102261.00;;;;4781056;29;99957;-71
2023/01/23 02:51:05;;;;;;;16.60;11.13;;;2.70;99.90;1.50;102265.00;;;;4782586;29;87825;-71
2023/01/23 02:53:31;;;;;;;15.33;11.67;;;1.80;99.90;1.60;102271.00;;;;4784079;29;106350;-72
2023/01/23 02:55:58;;;;;;;12.63;10.93;;;1.80;99.90;1.60;102276.00;;;;4777427;29;107412;-71
2023/01/23 03:01:09;;;;;;;20.17;11.10;;;1.90;99.90;1.60;102277.00;;;;4780374;29;87149;-72
2023/01/23 03:03:34;;;;;;;16.53;10.80;;;1.80;99.90;1.60;102284.00;;;;4781973;29;111607;-73
2023/01/23 03:06:02;;;;;;;16.87;12.07;;;1.90;99.90;1.60;102279.00;;;;4794482;29;107432;-73
2023/01/23 03:08:34;;;;;;;24.00;13.63;;;1.90;99.90;1.50;102280.00;;;;4782806;29;88843;-72
2023/01/23 03:11:02;;;;;;;12.37;9.70;;;2.40;99.90;1.50;102293.00;;;;4780016;29;88256;-70
2023/01/23 03:13:28;;;;;;;28.90;12.20;;;1.80;99.90;1.60;102293.00;;;;4779963;29;104195;-70
2023/01/23 03:15:57;;;;;;;19.47;10.30;;;1.80;99.90;1.60;102285.00;;;;4781238;29;87808;-70
2023/01/23 03:18:26;;;;;;;14.57;9.93;;;1.90;99.90;1.60;102296.00;;;;4782017;29;89439;-70
2023/01/23 03:20:52;;;;;;;17.70;12.17;;;1.90;99.90;1.60;102288.00;;;;4783793;29;87842;-71
2023/01/23 03:23:18;;;;;;;14.73;11.83;;;2.00;99.90;1.60;102290.00;;;;4783069;29;88073;-71
2023/01/23 03:25:44;;;;;;;21.27;10.77;;;2.00;99.90;1.60;102292.00;;;;4783489;29;87117;-71
2023/01/23 03:30:12;;;;;;;22.53;12.47;;;1.90;99.90;1.60;102279.00;;;;4780731;29;88626;-71
2023/01/23 03:30:56;;;;;;;22.40;11.30;;;1.80;99.90;1.60;102284.00;;;;4781897;29;88102;-71
2023/01/23 03:33:22;;;;;;;17.93;11.83;;;2.00;99.90;1.60;102285.00;;;;4779981;29;88642;-71
2023/01/23 03:35:48;;;;;;;19.77;12.03;;;1.90;99.90;1.60;102283.00;;;;4780113;29;109272;-71
2023/01/23 03:38:16;;;;;;;26.53;12.23;;;2.00;99.90;1.60;102282.00;;;;4780727;29;110195;-71
2023/01/23 03:43:31;;;;;;;21.73;11.70;;;2.90;99.90;1.70;102291.00;;;;4781675;29;87904;-71
2023/01/23 03:45:58;;;;;;;18.90;10.80;;;2.00;99.90;1.70;102281.00;;;;4782748;29;87980;-71
2023/01/23 03:48:24;;;;;;;19.87;11.70;;;1.90;99.90;1.70;102277.00;;;;4782443;29;88311;-71
2023/01/23 03:50:50;;;;;;;17.33;10.50;;;1.90;99.90;1.60;102285.00;;;;4783350;29;88478;-71
2023/01/23 03:53:16;;;;;;;17.03;10.60;;;2.00;99.90;1.70;102283.00;;;;4781311;29;87870;-71
2023/01/23 03:55:45;;;;;;;21.53;11.80;;;1.90;99.90;1.70;102282.00;;;;4782047;29;107955;-71
2023/01/23 03:58:11;;;;;;;17.30;11.50;;;2.80;99.90;1.70;102270.00;;;;4779750;29;111320;-72
2023/01/23 04:00:36;;;;;;;16.10;11.87;;;1.80;99.90;1.70;102285.00;;;;4782465;29;91494;-72
2023/01/23 04:03:02;;;;;;;16.73;10.70;;;1.90;99.90;1.60;102287.00;;;;4780451;29;111895;-72
2023/01/23 04:05:28;;;;;;;18.53;10.67;;;1.90;99.90;1.70;102289.00;;;;4777245;29;105691;-73
2023/01/23 04:07:54;;;;;;;15.63;10.40;;;1.90;99.90;1.70;102287.00;;;;4782195;29;118311;-71
2023/01/23 04:10:19;;;;;;;21.07;11.30;;;2.00;99.90;1.60;102287.00;;;;4777604;29;117162;-71
2023/01/23 04:12:45;;;;;;;21.40;11.37;;;1.90;99.90;1.60;102291.00;;;;4776558;29;113920;-72
2023/01/23 04:15:11;;;;;;;12.63;11.13;;;1.90;99.90;1.60;102291.00;;;;4781164;29;107825;-73
2023/01/23 04:17:36;;;;;;;14.10;9.83;;;2.00;99.90;1.60;102298.00;;;;4780380;29;118938;-73
2023/01/23 04:20:03;;;;;;;16.23;10.33;;;1.90;99.90;1.60;102305.00;;;;4780937;29;117600;-72
2023/01/23 04:22:28;;;;;;;16.60;10.73;;;1.90;99.90;1.60;102302.00;;;;4778565;29;98650;-70
2023/01/23 04:24:54;;;;;;;17.30;10.33;;;1.90;99.90;1.60;102299.00;;;;4778666;29;108129;-71
2023/01/23 04:27:20;;;;;;;17.67;11.57;;;1.90;99.90;1.60;102294.00;;;;4777425;29;117182;-71
2023/01/23 04:29:46;;;;;;;11.73;9.33;;;1.90;99.90;1.60;102322.00;;;;4779476;29;115739;-71
2023/01/23 04:32:12;;;;;;;12.93;9.90;;;1.90;99.90;1.60;102324.00;;;;4782866;29;87861;-71
2023/01/23 04:34:38;;;;;;;14.40;8.20;;;1.80;99.90;1.60;102332.00;;;;4784915;29;91110;-70
2023/01/23 04:37:04;;;;;;;14.40;9.67;;;1.80;99.90;1.60;102319.00;;;;4782526;29;117709;-70
2023/01/23 04:39:31;;;;;;;13.77;9.27;;;1.80;99.90;1.60;102319.00;;;;4781030;29;97303;-71
2023/01/23 04:41:57;;;;;;;22.90;12.50;;;1.80;99.90;1.60;102327.00;;;;4781346;29;88082;-74
2023/01/23 04:44:23;;;;;;;18.27;10.87;;;1.90;99.90;1.60;102323.00;;;;4779529;29;105756;-74
2023/01/23 04:46:54;;;;;;;14.83;10.53;;;1.90;99.90;1.60;102324.00;;;;4779959;29;89343;-74
2023/01/23 04:49:21;;;;;;;17.97;10.20;;;1.80;99.90;1.60;102321.00;;;;4791242;29;88967;-74
2023/01/23 04:51:48;;;;;;;17.43;8.57;;;2.40;99.90;1.60;102321.00;;;;4766323;29;87951;-74
2023/01/23 04:54:15;;;;;;;16.47;10.30;;;1.90;99.90;1.60;102318.00;;;;4784991;29;87942;-74
2023/01/23 04:56:42;;;;;;;18.53;9.67;;;1.90;99.90;1.60;102321.00;;;;4779724;29;87851;-72
2023/01/23 04:59:08;;;;;;;12.33;9.90;;;2.00;99.90;1.60;102326.00;;;;4791935;29;88292;-71
2023/01/23 05:01:34;;;;;;;17.43;10.53;;;1.90;99.90;1.60;102332.00;;;;4781663;29;109851;-73
2023/01/23 05:04:00;;;;;;;15.47;9.53;;;1.90;99.90;1.60;102339.00;;;;4781097;29;87188;-71
2023/01/23 05:06:26;;;;;;;16.70;10.20;;;1.90;99.90;1.60;102337.00;;;;4779782;29;118425;-71
2023/01/23 05:08:51;;;;;;;15.17;9.10;;;2.00;99.90;1.50;102338.00;;;;4779755;29;88300;-71
2023/01/23 05:11:17;;;;;;;17.90;10.80;;;2.00;99.90;1.50;102347.00;;;;4781614;29;112380;-72
2023/01/23 05:13:43;;;;;;;16.90;9.67;;;1.80;99.90;1.50;102346.00;;;;4777741;29;88997;-72
2023/01/23 05:16:09;;;;;;;16.40;9.77;;;1.90;99.90;1.60;102336.00;;;;4780548;29;110266;-72
2023/01/23 05:18:34;;;;;;;20.90;11.83;;;1.80;99.90;1.50;102337.00;;;;4780801;29;117081;-71
2023/01/23 05:21:00;;;;;;;17.40;10.17;;;1.80;99.90;1.60;102343.00;;;;4779881;29;110487;-70
2023/01/23 05:23:26;;;;;;;16.67;9.87;;;1.80;99.90;1.60;102343.00;;;;4782064;29;109173;-70
2023/01/23 05:25:51;;;;;;;14.30;9.90;;;1.80;99.90;1.60;102355.00;;;;4782095;29;117572;-70
2023/01/23 05:28:17;;;;;;;16.27;9.83;;;2.50;99.90;1.60;102355.00;;;;4778840;29;116349;-70
2023/01/23 05:30:43;;;;;;;17.37;9.40;;;1.90;99.90;1.60;102359.00;;;;4780002;29;110222;-70
2023/01/23 05:33:08;;;;;;;16.13;8.20;;;1.90;99.90;1.60;102362.00;;;;4779561;29;109263;-71
2023/01/23 05:35:34;;;;;;;16.03;10.90;;;1.90;99.90;1.60;102350.00;;;;4358167;29;117239;-73
2023/01/23 05:38:00;;;;;;;19.80;9.57;;;1.80;99.90;1.60;102363.00;;;;4776635;29;119479;-71
2023/01/23 05:40:25;;;;;;;18.13;10.60;;;1.90;99.90;1.60;102368.00;;;;4781234;29;88228;-72
2023/01/23 05:42:51;;;;;;;20.47;11.67;;;1.90;99.90;1.60;102364.00;;;;4781985;29;108825;-73
2023/01/23 05:45:17;;;;;;;19.00;11.00;;;1.80;99.90;1.60;102361.00;;;;4782683;29;118321;-72
2023/01/23 05:47:43;;;;;;;18.17;10.03;;;2.10;99.90;1.60;102367.00;;;;4783309;29;88739;-72
2023/01/23 05:50:17;;;;;;;16.73;10.03;;;1.90;99.90;1.60;102370.00;;;;4781718;29;87947;-74
2023/01/23 05:52:43;;;;;;;21.73;12.67;;;1.90;99.90;1.60;102364.00;;;;4779378;29;98137;-74
2023/01/23 05:55:09;;;;;;;16.47;9.93;;;1.90;99.90;1.60;102371.00;;;;4781960;29;88396;-72
2023/01/23 05:57:35;;;;;;;17.40;10.53;;;1.90;99.90;1.60;102368.00;;;;4784795;29;95338;-72
2023/01/23 06:00:00;;;;;;;18.93;11.17;;;1.90;99.90;1.60;102374.00;;;;4782999;29;88693;-72
2023/01/23 06:02:26;;;;;;;16.17;11.80;;;1.80;99.90;1.60;102381.00;;;;4786152;29;100343;-73
2023/01/23 06:04:52;;;;;;;16.77;10.27;;;1.80;99.90;1.60;102383.00;;;;4794319;29;105033;-71
2023/01/23 06:07:19;;;;;;;21.00;11.03;;;1.80;99.90;1.60;102372.00;;;;4781398;29;118064;-73
2023/01/23 06:09:45;;;;;;;15.27;10.20;;;1.80;99.90;1.60;102386.00;;;;4781056;29;88137;-73
2023/01/23 06:12:11;;;;;;;19.23;10.83;;;1.90;99.90;1.60;102376.00;;;;4766941;29;94136;-73
2023/01/23 06:14:38;;;;;;;17.40;12.40;;;2.00;99.90;1.60;102369.00;;;;4782229;29;108757;-71
2023/01/23 06:17:04;;;;;;;18.67;11.13;;;2.20;99.90;1.60;102368.00;;;;4783844;29;95794;-70
2023/01/23 06:19:30;;;;;;;20.43;10.90;;;1.90;99.90;1.50;102371.00;;;;4782791;29;97579;-70
2023/01/23 06:21:55;;;;;;;15.13;10.13;;;1.90;99.90;1.50;102375.00;;;;4782940;29;87886;-73
2023/01/23 06:24:21;;;;;;;17.57;9.93;;;2.30;99.90;1.50;102381.00;;;;4781918;29;118903;-71
2023/01/23 06:26:47;;;;;;;17.40;9.43;;;1.80;99.90;1.50;102382.00;;;;4783154;29;118177;-71
2023/01/23 06:29:13;;;;;;;20.43;12.83;;;1.80;99.90;1.50;102393.00;;;;4781704;29;109943;-73
2023/01/23 06:31:38;;;;;;;19.57;11.37;;;1.80;99.90;1.50;102389.00;;;;4782477;29;87797;-73
2023/01/23 06:34:04;;;;;;;19.30;10.20;;;1.80;99.90;1.50;102404.00;;;;4781051;29;117711;-71
2023/01/23 06:36:30;;;;;;;19.80;11.17;;;1.70;99.90;1.50;102391.00;;;;4780527;29;117656;-71
2023/01/23 06:38:56;;;;;;;16.77;11.40;;;1.70;99.90;1.50;102378.00;;;;4782405;29;87859;-71
2023/01/23 06:41:23;;;;;;;25.07;10.63;;;1.70;99.90;1.50;102376.00;;;;4782148;29;108815;-72
2023/01/23 06:43:48;;;;;;;24.07;12.50;;;1.80;99.90;1.50;102384.00;;;;4796410;29;88241;-72
2023/01/23 06:46:14;;;;;;;16.60;10.83;;;2.70;99.90;1.50;102381.00;;;;4782013;29;87927;-72
2023/01/23 06:48:40;;;;;;;16.20;13.10;;;1.80;99.90;1.50;102387.00;;;;4783385;29;89174;-71
2023/01/23 06:51:06;;;;;;;20.87;13.07;;;1.80;99.90;1.50;102390.00;;;;4780911;29;90682;-73
2023/01/23 06:53:32;;;;;;;16.30;11.20;;;1.70;99.90;1.50;102388.00;;;;4782881;29;117738;-71
2023/01/23 06:56:05;;;;;;;23.43;11.07;;;1.80;99.90;1.50;102399.00;;;;4782204;29;88144;-72
2023/01/23 06:58:32;;;;;;;17.00;11.47;;;1.90;99.90;1.50;102390.00;;;;4775937;29;87982;-70
2023/01/23 07:00:58;;;;;;;18.80;11.30;;;1.80;99.90;1.50;102399.00;;;;4781310;29;100722;-71
2023/01/23 07:03:23;;;;;;;23.37;12.83;;;1.70;99.90;1.50;102401.00;;;;4777259;29;117733;-71
2023/01/23 07:05:50;;;;;;;14.43;11.17;;;1.80;99.90;1.50;102410.00;;;;4781324;29;116857;-71
2023/01/23 07:08:15;;;;;;;22.40;12.37;;;2.60;99.90;1.50;102413.00;;;;4783950;29;93940;-71
2023/01/23 07:10:41;;;;;;;15.93;10.30;;;1.90;99.90;1.50;102416.00;;;;4780646;29;107379;-74
2023/01/23 07:13:10;;;;;;;22.63;13.30;;;1.80;99.90;1.60;102419.00;;;;4778728;29;97861;-71
2023/01/23 07:15:36;;;;;;;17.17;11.00;;;1.80;99.90;1.60;102420.00;;;;4792020;29;90565;-72
2023/01/23 07:18:02;;;;;;;23.77;12.63;;;2.80;99.90;1.60;102427.00;;;;4782142;29;87997;-71
2023/01/23 07:20:28;;;;;;;16.80;10.23;;;1.90;99.90;1.50;102429.00;;;;4784625;29;87696;-73
2023/01/23 07:22:55;;;;;;;20.30;13.40;;;2.00;99.90;1.60;102433.00;;;;4781422;29;103533;-72
2023/01/23 07:25:23;;;;;;;16.50;11.30;;;1.80;99.90;1.60;102442.00;;;;4784743;29;88042;-71
2023/01/23 07:27:49;;;;;;;18.87;10.53;;;1.80;99.90;1.50;102438.00;;;;4781732;29;106387;-72
2023/01/23 07:30:16;;;;;;;14.20;8.83;;;1.80;99.90;1.50;102451.00;;;;4783426;29;91344;-71
2023/01/23 07:32:42;;;;;;;17.50;11.53;;;1.80;99.90;1.50;102454.00;;;;4783985;29;110753;-71
2023/01/23 07:35:08;;;;;;;22.50;12.57;;;1.90;99.90;1.50;102459.00;;;;4780542;29;88130;-73
2023/01/23 07:37:34;;;;;;;20.47;11.30;;;1.80;99.90;1.50;102473.00;;;;4782142;29;111400;-72
2023/01/23 07:40:00;;;;;;;23.97;11.33;;;1.80;99.90;1.50;102475.00;;;;4782004;29;90128;-71
2023/01/23 07:42:26;;;;;;;17.53;11.43;;;1.80;99.90;1.50;102486.00;;;;4777993;29;119355;-73
2023/01/23 07:44:52;;;;;;;19.93;11.97;;;1.90;99.90;1.50;102473.00;;;;4778617;29;116902;-73
2023/01/23 07:47:17;;;;;;;14.17;11.17;;;1.80;99.90;1.50;102485.00;;;;4793357;29;110488;-72
2023/01/23 07:49:43;;;;;;;16.20;10.23;;;1.80;99.90;1.50;102483.00;;;;4783213;29;107189;-73
2023/01/23 07:52:09;;;;;;;19.00;9.30;;;1.90;99.90;1.50;102489.00;;;;4781556;29;117303;-73
2023/01/23 07:54:34;;;;;;;24.37;11.37;;;1.70;99.90;1.50;102501.00;;;;4780306;29;117610;-73
2023/01/23 07:57:00;;;;;;;14.23;10.47;;;1.80;99.90;1.50;102490.00;;;;4779729;29;87945;-71
2023/01/23 07:59:26;;;;;;;17.27;9.90;;;1.80;99.90;1.50;102489.00;;;;4778822;29;99414;-72
2023/01/23 08:01:52;;;;;;;17.23;11.83;;;1.80;99.90;1.50;102504.00;;;;4779814;29;118971;-72
2023/01/23 08:04:18;;;;;;;21.00;11.43;;;1.90;99.90;1.50;102506.00;;;;4781408;29;91177;-71
2023/01/23 08:06:44;;;;;;;12.10;9.30;;;1.80;99.90;1.50;102501.00;;;;4781125;29;96863;-74
2023/01/23 08:09:11;;;;;;;17.37;10.70;;;1.90;99.90;1.60;102516.00;;;;4780813;29;87913;-74
2023/01/23 08:11:36;;;;;;;16.77;11.53;;;1.90;99.90;1.60;102505.00;;;;4779196;29;89498;-74
2023/01/23 08:14:02;;;;;;;13.43;10.37;;;2.00;99.90;1.60;102505.00;;;;4794087;29;115763;-73
2023/01/23 08:16:28;;;;;;;20.20;9.80;;;2.90;99.90;1.60;102508.00;;;;4779909;29;99352;-73
2023/01/23 08:18:54;;;;;;;16.07;11.03;;;1.90;99.90;1.60;102504.00;;;;4781503;29;88215;-73
2023/01/23 08:21:19;;;;;;;16.00;10.13;;;2.00;99.90;1.60;102511.00;;;;4778275;29;117387;-72
2023/01/23 08:23:45;;;;;;;18.37;10.63;;;1.80;99.90;1.70;102518.00;;;;4780854;29;116538;-72
2023/01/23 08:26:13;;;;;;;13.87;10.30;;;1.90;99.90;1.70;102515.00;;;;4779241;29;88862;-72
2023/01/23 08:28:41;;;;;;;11.47;10.03;;;1.90;99.90;1.70;102509.00;;;;4790974;29;87975;-71
2023/01/23 08:31:08;;;;;;;14.40;8.63;;;1.50;99.90;1.70;102520.00;;;;4781714;29;88163;-72
2023/01/23 08:33:36;;;;;;;16.03;10.03;;;2.00;99.90;1.70;102528.00;;;;4794081;29;87796;-71
2023/01/23 08:36:03;;;;;;;10.97;9.73;;;2.00;99.90;1.70;102521.00;;;;4778684;29;102717;-71
2023/01/23 08:38:30;;;;;;;10.30;7.90;;;1.90;99.90;1.70;102522.00;;;;4781359;29;87558;-71
2023/01/23 08:40:59;;;;;;;15.20;9.57;;;2.00;99.90;1.80;102533.00;;;;4781078;29;88580;-71
2023/01/23 08:43:25;;;;;;;15.33;8.53;;;2.10;99.90;1.80;102524.00;;;;4779880;29;93682;-71
2023/01/23 08:45:54;;;;;;;8.30;7.50;;;2.00;99.90;1.80;102526.00;;;;4782409;29;88535;-72
2023/01/23 08:48:22;;;;;;;17.47;10.53;;;2.10;99.90;1.80;102541.00;;;;4791973;29;88014;-72
2023/01/23 08:50:49;;;;;;;18.17;9.17;;;2.20;99.90;1.90;102535.00;;;;4780033;29;95880;-71
2023/01/23 08:53:15;;;;;;;9.43;8.40;;;2.00;99.90;1.90;102535.00;;;;4777173;29;111837;-71
2023/01/23 08:55:41;;;;;;;11.03;9.13;;;2.20;99.90;1.90;102532.00;;;;4782351;29;110125;-72
2023/01/23 08:58:09;;;;;;;15.73;9.53;;;2.20;99.90;1.90;102531.00;;;;4783137;29;108456;-71
2023/01/23 09:00:35;;;;;;;12.87;8.77;;;2.20;99.90;1.90;102535.00;;;;4784016;29;88852;-71
2023/01/23 09:03:02;;;;;;;14.90;8.93;;;2.30;99.90;2.00;102533.00;;;;4782527;29;91905;-70
2023/01/23 09:05:29;;;;;;;13.20;8.37;;;2.30;99.90;2.00;102527.00;;;;4780381;29;87997;-71
2023/01/23 09:07:56;;;;;;;19.67;11.33;;;2.20;99.90;2.00;102531.00;;;;4780321;29;87422;-71
2023/01/23 09:10:22;;;;;;;18.03;8.70;;;2.30;99.90;2.10;102527.00;;;;4778228;29;88615;-71
2023/01/23 09:12:51;;;;;;;17.53;10.97;;;2.30;99.90;2.10;102532.00;;;;4780209;29;89688;-71
2023/01/23 09:15:17;;;;;;;13.03;8.67;;;2.30;99.90;2.10;102543.00;;;;4778785;29;89150;-71
2023/01/23 09:17:43;;;;;;;12.70;7.70;;;2.40;99.90;2.20;102547.00;;;;4785956;29;87655;-71
2023/01/23 09:20:09;;;;;;;15.53;9.03;;;2.40;99.90;2.20;102543.00;;;;4785541;29;88078;-74
2023/01/23 09:22:35;;;;;;;12.30;9.20;;;2.40;99.90;2.20;102549.00;;;;4783344;29;88693;-71
2023/01/23 09:25:01;;;;;;;16.87;9.30;;;2.40;99.90;2.20;102546.00;;;;4786739;29;88105;-73
2023/01/23 09:27:26;;;;;;;18.93;10.77;;;2.40;99.90;2.20;102545.00;;;;4782738;29;87881;-73
2023/01/23 09:29:52;;;;;;;17.60;12.07;;;2.40;99.90;2.30;102553.00;;;;4782353;29;97248;-73
2023/01/23 09:32:18;;;;;;;19.97;9.80;;;2.50;99.90;2.30;102549.00;;;;4785543;29;93346;-71
2023/01/23 09:34:43;;;;;;;20.37;11.57;;;2.50;99.90;2.30;102555.00;;;;4786012;29;114949;-71
2023/01/23 09:37:09;;;;;;;13.33;9.33;;;2.50;99.90;2.30;102553.00;;;;4784780;29;108834;-72
2023/01/23 09:39:35;;;;;;;19.77;12.17;;;2.50;99.90;2.30;102551.00;;;;4783112;29;117411;-73
2023/01/23 09:42:07;;;;;;;16.97;12.00;;;2.50;99.90;2.40;102548.00;;;;4780909;29;88694;-74
2023/01/23 09:44:41;;;;;;;20.93;14.53;;;2.60;99.90;2.40;102566.00;;;;4781241;29;87758;-74
2023/01/23 09:47:40;;;;;;;19.10;11.83;;;2.60;99.90;2.40;102558.00;;;;4796100;29;98951;-74
2023/01/23 09:50:17;;;;;;;19.83;12.07;;;2.70;99.90;2.50;102548.00;;;;4777312;29;110885;-74
2023/01/23 09:52:58;;;;;;;21.10;12.67;;;2.70;99.90;2.50;102552.00;;;;4791969;29;103331;-74
2023/01/23 09:55:37;;;;;;;23.10;13.20;;;2.80;99.90;2.60;102536.00;;;;4793385;29;87749;-72
2023/01/23 09:58:04;;;;;;;17.60;11.97;;;2.80;99.90;2.60;102537.00;;;;4782070;29;87427;-72
2023/01/23 10:00:32;;;;;;;20.03;12.33;;;2.80;99.90;2.70;102541.00;;;;4781085;29;88456;-73
2023/01/23 10:03:11;;;;;;;17.53;12.30;;;3.80;99.90;2.70;102532.00;;;;4790973;29;108545;-74
2023/01/23 10:06:11;;;;;;;16.77;10.63;;;2.90;99.90;2.70;102533.00;;;;4778645;29;97888;-74
2023/01/23 10:08:41;;;;;;;19.87;10.90;;;3.00;99.90;2.80;102536.00;;;;4783192;29;87683;-72
2023/01/23 10:11:41;;;;;;;16.57;11.07;;;3.00;99.90;2.70;102531.00;;;;4793273;29;88049;-73
2023/01/23 10:14:21;;;;;;;17.87;13.20;;;3.00;99.90;2.80;102539.00;;;;4796910;29;89320;-73
2023/01/23 10:17:13;;;;;;;20.57;10.50;;;3.10;99.90;2.80;102538.00;;;;4783138;29;87846;-73
2023/01/23 10:20:13;;;;;;;23.17;11.57;;;3.00;99.90;2.80;102537.00;;;;4794645;29;88408;-72
2023/01/23 10:23:05;;;;;;;18.73;11.60;;;3.10;99.90;2.80;102535.00;;;;4783083;29;87903;-71
2023/01/23 10:25:36;;;;;;;19.33;11.53;;;3.20;99.90;2.80;102526.00;;;;4790633;29;87202;-72
2023/01/23 10:28:37;;;;;;;20.97;12.40;;;3.10;99.90;2.80;102531.00;;;;4782110;29;87784;-72
2023/01/23 10:31:53;;;;;;;17.07;10.77;;;3.00;99.90;2.80;102520.00;;;;4783089;29;87989;-72
2023/01/23 10:34:36;;;;;;;15.60;11.77;;;3.00;99.90;2.70;102513.00;;;;4778507;29;89122;-73
2023/01/23 10:37:32;;;;;;;24.90;13.73;;;3.00;99.90;2.70;102527.00;;;;4773913;29;88858;-73
2023/01/23 10:40:10;;;;;;;20.97;13.47;;;3.10;99.90;2.80;102531.00;;;;4777725;29;93986;-74
2023/01/23 10:42:36;;;;;;;17.10;12.17;;;3.00;99.90;2.80;102522.00;;;;4778867;29;88036;-72
2023/01/23 10:45:02;;;;;;;22.27;11.77;;;3.00;99.90;2.70;102522.00;;;;4780313;29;117769;-72
2023/01/23 10:47:40;;;;;;;20.00;13.10;;;3.00;99.90;2.70;102514.00;;;;4793945;29;88416;-71
2023/01/23 10:50:07;;;;;;;18.07;10.97;;;3.00;99.90;2.70;102525.00;;;;4776545;29;88101;-72
2023/01/23 10:52:34;;;;;;;20.07;11.17;;;2.90;99.90;2.70;102521.00;;;;4775707;29;96052;-74
2023/01/23 10:55:00;;;;;;;22.50;11.90;;;2.90;99.90;2.70;102520.00;;;;4779812;29;89301;-73
2023/01/23 10:57:29;;;;;;;22.80;13.13;;;2.40;99.90;2.70;102524.00;;;;4778077;29;117876;-73
2023/01/23 11:00:03;;;;;;;16.17;11.50;;;2.90;99.90;2.70;102514.00;;;;4762415;29;88676;-73